sensor_id;sensor_type;location;lat;lon;timestamp;P1;durP1;ratioP1;P2;durP2;ratioP2
70455;SDS011;57916;51.996;5.180;2023-06-22T00:00:02;8.43;;;5.30;;
70455;SDS011;57916;51.996;5.180;2023-06-22T00:02:37;6.95;;;5.38;;
70455;SDS011;57916;51.996;5.180;2023-06-22T00:05:04;19.42;;;6.70;;
70455;SDS011;57916;51.996;5.180;2023-06-22T00:07:31;9.00;;;6.22;;
70455;SDS011;57916;51.996;5.180;2023-06-22T00:09:58;9.55;;;5.80;;
70455;SDS011;57916;51.996;5.180;2023-06-22T00:12:25;9.10;;;6.13;;
70455;SDS011;57916;51.996;5.180;2023-06-22T00:14:52;8.82;;;6.00;;
70455;SDS011;57916;51.996;5.180;2023-06-22T00:17:19;8.18;;;6.13;;
70455;SDS011;57916;51.996;5.180;2023-06-22T00:19:46;9.48;;;6.30;;
70455;SDS011;57916;51.996;5.180;2023-06-22T00:22:13;9.13;;;6.20;;
70455;SDS011;57916;51.996;5.180;2023-06-22T00:24:40;8.03;;;6.17;;
70455;SDS011;57916;51.996;5.180;2023-06-22T00:27:08;8.48;;;6.22;;
70455;SDS011;57916;51.996;5.180;2023-06-22T00:29:35;8.80;;;5.85;;
70455;SDS011;57916;51.996;5.180;2023-06-22T00:32:02;8.68;;;6.18;;
70455;SDS011;57916;51.996;5.180;2023-06-22T00:34:30;7.47;;;6.15;;
70455;SDS011;57916;51.996;5.180;2023-06-22T00:36:58;8.35;;;6.18;;
70455;SDS011;57916;51.996;5.180;2023-06-22T00:39:26;9.73;;;6.20;;
70455;SDS011;57916;51.996;5.180;2023-06-22T00:41:52;7.22;;;6.03;;
70455;SDS011;57916;51.996;5.180;2023-06-22T00:44:19;10.27;;;6.65;;
70455;SDS011;57916;51.996;5.180;2023-06-22T00:46:46;10.57;;;6.00;;
70455;SDS011;57916;51.996;5.180;2023-06-22T00:49:14;8.00;;;6.47;;
70455;SDS011;57916;51.996;5.180;2023-06-22T00:51:41;10.95;;;6.65;;
70455;SDS011;57916;51.996;5.180;2023-06-22T00:54:14;9.02;;;6.32;;
70455;SDS011;57916;51.996;5.180;2023-06-22T00:56:41;11.18;;;6.60;;
70455;SDS011;57916;51.996;5.180;2023-06-22T00:59:08;10.50;;;6.20;;
70455;SDS011;57916;51.996;5.180;2023-06-22T01:01:39;10.05;;;6.05;;
70455;SDS011;57916;51.996;5.180;2023-06-22T01:04:07;7.50;;;6.10;;
70455;SDS011;57916;51.996;5.180;2023-06-22T01:06:38;9.83;;;6.20;;
70455;SDS011;57916;51.996;5.180;2023-06-22T01:09:14;10.80;;;6.45;;
70455;SDS011;57916;51.996;5.180;2023-06-22T01:11:55;8.25;;;6.25;;
70455;SDS011;57916;51.996;5.180;2023-06-22T01:14:35;11.23;;;6.15;;
70455;SDS011;57916;51.996;5.180;2023-06-22T01:17:10;9.10;;;6.10;;
70455;SDS011;57916;51.996;5.180;2023-06-22T01:22:17;8.60;;;6.60;;
70455;SDS011;57916;51.996;5.180;2023-06-22T01:24:50;10.05;;;6.68;;
70455;SDS011;57916;51.996;5.180;2023-06-22T01:27:37;11.15;;;6.60;;
70455;SDS011;57916;51.996;5.180;2023-06-22T01:30:13;8.23;;;6.38;;
70455;SDS011;57916;51.996;5.180;2023-06-22T01:32:42;8.25;;;6.45;;
70455;SDS011;57916;51.996;5.180;2023-06-22T01:35:09;13.02;;;6.60;;
70455;SDS011;57916;51.996;5.180;2023-06-22T01:37:37;8.57;;;6.38;;
70455;SDS011;57916;51.996;5.180;2023-06-22T01:40:05;7.80;;;6.67;;
70455;SDS011;57916;51.996;5.180;2023-06-22T01:42:34;9.48;;;6.78;;
70455;SDS011;57916;51.996;5.180;2023-06-22T01:45:03;13.02;;;7.32;;
70455;SDS011;57916;51.996;5.180;2023-06-22T01:47:31;9.20;;;6.88;;
70455;SDS011;57916;51.996;5.180;2023-06-22T01:49:58;10.93;;;7.20;;
70455;SDS011;57916;51.996;5.180;2023-06-22T01:52:26;9.60;;;6.97;;
70455;SDS011;57916;51.996;5.180;2023-06-22T01:54:55;11.05;;;7.28;;
70455;SDS011;57916;51.996;5.180;2023-06-22T01:57:24;12.57;;;7.33;;
70455;SDS011;57916;51.996;5.180;2023-06-22T02:02:43;11.65;;;7.20;;
70455;SDS011;57916;51.996;5.180;2023-06-22T02:05:16;9.85;;;7.13;;
70455;SDS011;57916;51.996;5.180;2023-06-22T02:08:29;9.65;;;7.35;;
70455;SDS011;57916;51.996;5.180;2023-06-22T02:10:38;11.63;;;7.75;;
70455;SDS011;57916;51.996;5.180;2023-06-22T02:13:08;10.23;;;7.45;;
70455;SDS011;57916;51.996;5.180;2023-06-22T02:15:36;12.48;;;7.30;;
70455;SDS011;57916;51.996;5.180;2023-06-22T02:18:03;10.70;;;7.32;;
70455;SDS011;57916;51.996;5.180;2023-06-22T02:20:31;13.10;;;7.53;;
70455;SDS011;57916;51.996;5.180;2023-06-22T02:22:58;14.52;;;7.78;;
70455;SDS011;57916;51.996;5.180;2023-06-22T02:25:25;14.68;;;7.60;;
70455;SDS011;57916;51.996;5.180;2023-06-22T02:27:52;12.70;;;7.72;;
70455;SDS011;57916;51.996;5.180;2023-06-22T02:30:19;12.30;;;7.75;;
70455;SDS011;57916;51.996;5.180;2023-06-22T02:32:46;10.35;;;7.72;;
70455;SDS011;57916;51.996;5.180;2023-06-22T02:35:14;10.70;;;7.38;;
70455;SDS011;57916;51.996;5.180;2023-06-22T02:37:41;10.65;;;7.63;;
70455;SDS011;57916;51.996;5.180;2023-06-22T02:40:09;11.60;;;7.30;;
70455;SDS011;57916;51.996;5.180;2023-06-22T02:42:37;10.48;;;7.72;;
70455;SDS011;57916;51.996;5.180;2023-06-22T02:45:04;11.32;;;7.32;;
70455;SDS011;57916;51.996;5.180;2023-06-22T02:47:31;10.02;;;7.20;;
70455;SDS011;57916;51.996;5.180;2023-06-22T02:49:59;8.88;;;6.97;;
70455;SDS011;57916;51.996;5.180;2023-06-22T02:52:28;14.40;;;7.45;;
70455;SDS011;57916;51.996;5.180;2023-06-22T02:54:55;9.63;;;7.45;;
70455;SDS011;57916;51.996;5.180;2023-06-22T02:57:22;9.87;;;7.37;;
70455;SDS011;57916;51.996;5.180;2023-06-22T02:59:49;11.65;;;7.93;;
70455;SDS011;57916;51.996;5.180;2023-06-22T03:02:17;11.38;;;8.18;;
70455;SDS011;57916;51.996;5.180;2023-06-22T03:04:47;12.60;;;7.80;;
70455;SDS011;57916;51.996;5.180;2023-06-22T03:07:15;14.00;;;7.97;;
70455;SDS011;57916;51.996;5.180;2023-06-22T03:09:44;11.10;;;8.13;;
70455;SDS011;57916;51.996;5.180;2023-06-22T03:12:11;13.60;;;7.87;;
70455;SDS011;57916;51.996;5.180;2023-06-22T03:14:48;12.40;;;7.38;;
70455;SDS011;57916;51.996;5.180;2023-06-22T03:17:16;10.50;;;7.72;;
70455;SDS011;57916;51.996;5.180;2023-06-22T03:19:43;13.02;;;7.95;;
70455;SDS011;57916;51.996;5.180;2023-06-22T03:22:10;12.00;;;8.32;;
70455;SDS011;57916;51.996;5.180;2023-06-22T03:24:39;12.00;;;7.85;;
70455;SDS011;57916;51.996;5.180;2023-06-22T03:27:06;13.43;;;7.72;;
70455;SDS011;57916;51.996;5.180;2023-06-22T03:29:34;10.93;;;8.10;;
70455;SDS011;57916;51.996;5.180;2023-06-22T03:32:01;15.55;;;8.30;;
70455;SDS011;57916;51.996;5.180;2023-06-22T03:34:28;10.75;;;7.90;;
70455;SDS011;57916;51.996;5.180;2023-06-22T03:37:00;13.40;;;7.45;;
70455;SDS011;57916;51.996;5.180;2023-06-22T03:39:28;10.55;;;7.55;;
70455;SDS011;57916;51.996;5.180;2023-06-22T03:41:56;12.70;;;7.55;;
70455;SDS011;57916;51.996;5.180;2023-06-22T03:44:23;12.00;;;7.47;;
70455;SDS011;57916;51.996;5.180;2023-06-22T03:46:50;11.77;;;7.57;;
70455;SDS011;57916;51.996;5.180;2023-06-22T03:49:18;11.25;;;7.68;;
70455;SDS011;57916;51.996;5.180;2023-06-22T03:51:45;11.27;;;7.45;;
70455;SDS011;57916;51.996;5.180;2023-06-22T03:54:12;11.98;;;8.27;;
70455;SDS011;57916;51.996;5.180;2023-06-22T03:56:39;10.98;;;7.95;;
70455;SDS011;57916;51.996;5.180;2023-06-22T03:59:06;13.60;;;7.85;;
70455;SDS011;57916;51.996;5.180;2023-06-22T04:01:33;12.77;;;7.90;;
70455;SDS011;57916;51.996;5.180;2023-06-22T04:04:00;12.32;;;7.55;;
70455;SDS011;57916;51.996;5.180;2023-06-22T04:06:27;11.57;;;8.00;;
70455;SDS011;57916;51.996;5.180;2023-06-22T04:08:54;14.98;;;8.02;;
70455;SDS011;57916;51.996;5.180;2023-06-22T04:11:21;14.00;;;8.20;;
70455;SDS011;57916;51.996;5.180;2023-06-22T04:13:48;11.35;;;8.02;;
70455;SDS011;57916;51.996;5.180;2023-06-22T04:16:15;12.95;;;8.23;;
70455;SDS011;57916;51.996;5.180;2023-06-22T04:18:42;11.33;;;7.80;;
70455;SDS011;57916;51.996;5.180;2023-06-22T04:21:09;11.60;;;8.10;;
70455;SDS011;57916;51.996;5.180;2023-06-22T04:23:37;11.18;;;8.15;;
70455;SDS011;57916;51.996;5.180;2023-06-22T04:26:04;14.15;;;8.32;;
70455;SDS011;57916;51.996;5.180;2023-06-22T04:28:31;11.88;;;8.50;;
70455;SDS011;57916;51.996;5.180;2023-06-22T04:31:02;12.27;;;8.45;;
70455;SDS011;57916;51.996;5.180;2023-06-22T04:33:29;13.10;;;8.60;;
70455;SDS011;57916;51.996;5.180;2023-06-22T04:35:57;13.80;;;8.70;;
70455;SDS011;57916;51.996;5.180;2023-06-22T04:38:24;13.35;;;9.18;;
70455;SDS011;57916;51.996;5.180;2023-06-22T04:40:51;15.23;;;8.53;;
70455;SDS011;57916;51.996;5.180;2023-06-22T04:43:19;13.63;;;8.90;;
70455;SDS011;57916;51.996;5.180;2023-06-22T04:45:47;14.05;;;8.80;;
70455;SDS011;57916;51.996;5.180;2023-06-22T04:48:19;16.40;;;9.17;;
70455;SDS011;57916;51.996;5.180;2023-06-22T04:50:46;13.73;;;8.68;;
70455;SDS011;57916;51.996;5.180;2023-06-22T04:53:13;12.82;;;8.23;;
70455;SDS011;57916;51.996;5.180;2023-06-22T04:55:40;13.73;;;8.52;;
70455;SDS011;57916;51.996;5.180;2023-06-22T04:58:08;13.73;;;8.40;;
70455;SDS011;57916;51.996;5.180;2023-06-22T05:00:35;13.10;;;8.68;;
70455;SDS011;57916;51.996;5.180;2023-06-22T05:03:05;12.65;;;8.60;;
70455;SDS011;57916;51.996;5.180;2023-06-22T05:05:45;15.07;;;8.95;;
70455;SDS011;57916;51.996;5.180;2023-06-22T05:08:13;13.27;;;8.73;;
70455;SDS011;57916;51.996;5.180;2023-06-22T05:10:40;11.43;;;8.77;;
70455;SDS011;57916;51.996;5.180;2023-06-22T05:13:24;15.52;;;9.05;;
70455;SDS011;57916;51.996;5.180;2023-06-22T05:15:53;13.38;;;8.90;;
70455;SDS011;57916;51.996;5.180;2023-06-22T05:18:28;15.18;;;9.00;;
70455;SDS011;57916;51.996;5.180;2023-06-22T05:20:56;14.70;;;8.98;;
70455;SDS011;57916;51.996;5.180;2023-06-22T05:23:24;16.35;;;9.80;;
70455;SDS011;57916;51.996;5.180;2023-06-22T05:25:51;15.98;;;9.40;;
70455;SDS011;57916;51.996;5.180;2023-06-22T05:28:18;17.95;;;9.57;;
70455;SDS011;57916;51.996;5.180;2023-06-22T05:30:49;13.45;;;9.60;;
70455;SDS011;57916;51.996;5.180;2023-06-22T05:33:17;13.55;;;9.50;;
70455;SDS011;57916;51.996;5.180;2023-06-22T05:35:44;17.20;;;9.50;;
70455;SDS011;57916;51.996;5.180;2023-06-22T05:38:11;14.30;;;9.25;;
70455;SDS011;57916;51.996;5.180;2023-06-22T05:40:38;12.60;;;9.27;;
70455;SDS011;57916;51.996;5.180;2023-06-22T05:43:05;15.02;;;9.40;;
70455;SDS011;57916;51.996;5.180;2023-06-22T05:45:32;12.50;;;9.05;;
70455;SDS011;57916;51.996;5.180;2023-06-22T05:47:59;12.95;;;9.10;;
70455;SDS011;57916;51.996;5.180;2023-06-22T05:50:26;14.30;;;9.80;;
70455;SDS011;57916;51.996;5.180;2023-06-22T05:52:53;14.93;;;9.82;;
70455;SDS011;57916;51.996;5.180;2023-06-22T05:55:20;15.40;;;9.30;;
70455;SDS011;57916;51.996;5.180;2023-06-22T05:57:47;16.65;;;10.00;;
70455;SDS011;57916;51.996;5.180;2023-06-22T06:00:14;14.02;;;9.40;;
70455;SDS011;57916;51.996;5.180;2023-06-22T06:02:41;15.48;;;10.20;;
70455;SDS011;57916;51.996;5.180;2023-06-22T06:05:11;15.90;;;10.52;;
70455;SDS011;57916;51.996;5.180;2023-06-22T06:07:41;17.27;;;11.55;;
70455;SDS011;57916;51.996;5.180;2023-06-22T06:10:09;16.42;;;11.02;;
70455;SDS011;57916;51.996;5.180;2023-06-22T06:12:36;19.77;;;11.85;;
70455;SDS011;57916;51.996;5.180;2023-06-22T06:15:03;17.13;;;11.57;;
70455;SDS011;57916;51.996;5.180;2023-06-22T06:17:31;18.55;;;12.25;;
70455;SDS011;57916;51.996;5.180;2023-06-22T06:20:01;21.55;;;13.55;;
70455;SDS011;57916;51.996;5.180;2023-06-22T06:22:31;19.70;;;12.93;;
70455;SDS011;57916;51.996;5.180;2023-06-22T06:24:57;22.05;;;13.10;;
70455;SDS011;57916;51.996;5.180;2023-06-22T06:27:24;19.80;;;13.02;;
70455;SDS011;57916;51.996;5.180;2023-06-22T06:29:55;20.23;;;13.40;;
70455;SDS011;57916;51.996;5.180;2023-06-22T06:32:23;20.02;;;12.85;;
70455;SDS011;57916;51.996;5.180;2023-06-22T06:34:50;19.60;;;12.70;;
70455;SDS011;57916;51.996;5.180;2023-06-22T06:37:17;19.90;;;12.65;;
70455;SDS011;57916;51.996;5.180;2023-06-22T06:39:45;21.17;;;12.63;;
70455;SDS011;57916;51.996;5.180;2023-06-22T06:42:12;23.00;;;12.95;;
70455;SDS011;57916;51.996;5.180;2023-06-22T06:44:39;21.35;;;12.90;;
70455;SDS011;57916;51.996;5.180;2023-06-22T06:47:06;21.17;;;12.95;;
70455;SDS011;57916;51.996;5.180;2023-06-22T06:49:33;24.63;;;13.52;;
70455;SDS011;57916;51.996;5.180;2023-06-22T06:52:00;19.65;;;12.77;;
70455;SDS011;57916;51.996;5.180;2023-06-22T06:54:27;20.10;;;12.48;;
70455;SDS011;57916;51.996;5.180;2023-06-22T06:56:54;22.90;;;13.23;;
70455;SDS011;57916;51.996;5.180;2023-06-22T06:59:21;20.37;;;12.87;;
70455;SDS011;57916;51.996;5.180;2023-06-22T07:01:48;19.23;;;13.35;;
70455;SDS011;57916;51.996;5.180;2023-06-22T07:04:15;21.67;;;13.38;;
70455;SDS011;57916;51.996;5.180;2023-06-22T07:06:42;17.63;;;12.70;;
70455;SDS011;57916;51.996;5.180;2023-06-22T07:09:09;16.50;;;11.73;;
70455;SDS011;57916;51.996;5.180;2023-06-22T07:11:36;17.38;;;12.25;;
70455;SDS011;57916;51.996;5.180;2023-06-22T07:14:03;17.27;;;11.65;;
70455;SDS011;57916;51.996;5.180;2023-06-22T07:16:30;19.55;;;12.07;;
70455;SDS011;57916;51.996;5.180;2023-06-22T07:18:58;12.93;;;9.25;;
70455;SDS011;57916;51.996;5.180;2023-06-22T07:21:24;15.18;;;10.02;;
70455;SDS011;57916;51.996;5.180;2023-06-22T07:23:51;16.33;;;10.25;;
70455;SDS011;57916;51.996;5.180;2023-06-22T07:26:19;14.27;;;9.70;;
70455;SDS011;57916;51.996;5.180;2023-06-22T07:28:46;14.30;;;9.30;;
70455;SDS011;57916;51.996;5.180;2023-06-22T07:31:13;15.17;;;10.00;;
70455;SDS011;57916;51.996;5.180;2023-06-22T07:33:40;13.70;;;9.65;;
70455;SDS011;57916;51.996;5.180;2023-06-22T07:36:07;13.68;;;8.82;;
70455;SDS011;57916;51.996;5.180;2023-06-22T07:38:34;13.80;;;9.43;;
70455;SDS011;57916;51.996;5.180;2023-06-22T07:41:02;12.43;;;9.20;;
70455;SDS011;57916;51.996;5.180;2023-06-22T07:43:32;11.68;;;9.25;;
70455;SDS011;57916;51.996;5.180;2023-06-22T07:46:00;18.42;;;10.32;;
70455;SDS011;57916;51.996;5.180;2023-06-22T07:48:27;14.75;;;10.18;;
70455;SDS011;57916;51.996;5.180;2023-06-22T07:50:55;17.03;;;10.50;;
70455;SDS011;57916;51.996;5.180;2023-06-22T07:53:22;17.58;;;9.95;;
70455;SDS011;57916;51.996;5.180;2023-06-22T07:55:49;16.45;;;9.98;;
70455;SDS011;57916;51.996;5.180;2023-06-22T07:58:17;16.27;;;9.60;;
70455;SDS011;57916;51.996;5.180;2023-06-22T08:00:45;17.17;;;10.30;;
70455;SDS011;57916;51.996;5.180;2023-06-22T08:03:13;14.27;;;9.48;;
70455;SDS011;57916;51.996;5.180;2023-06-22T08:05:40;15.65;;;9.88;;
70455;SDS011;57916;51.996;5.180;2023-06-22T08:08:07;15.88;;;9.57;;
70455;SDS011;57916;51.996;5.180;2023-06-22T08:10:34;13.35;;;8.25;;
70455;SDS011;57916;51.996;5.180;2023-06-22T08:13:02;8.40;;;7.15;;
70455;SDS011;57916;51.996;5.180;2023-06-22T08:15:29;13.52;;;9.20;;
70455;SDS011;57916;51.996;5.180;2023-06-22T08:17:56;14.95;;;8.50;;
70455;SDS011;57916;51.996;5.180;2023-06-22T08:20:24;16.38;;;8.48;;
70455;SDS011;57916;51.996;5.180;2023-06-22T08:22:53;12.65;;;7.65;;
70455;SDS011;57916;51.996;5.180;2023-06-22T08:25:20;11.40;;;7.70;;
70455;SDS011;57916;51.996;5.180;2023-06-22T08:27:47;10.13;;;7.87;;
70455;SDS011;57916;51.996;5.180;2023-06-22T08:30:15;11.30;;;7.80;;
70455;SDS011;57916;51.996;5.180;2023-06-22T08:32:44;10.45;;;8.00;;
70455;SDS011;57916;51.996;5.180;2023-06-22T08:35:11;10.93;;;7.18;;
70455;SDS011;57916;51.996;5.180;2023-06-22T08:37:38;11.23;;;7.18;;
70455;SDS011;57916;51.996;5.180;2023-06-22T08:40:07;10.30;;;7.30;;
70455;SDS011;57916;51.996;5.180;2023-06-22T08:42:36;10.70;;;6.35;;
70455;SDS011;57916;51.996;5.180;2023-06-22T08:45:04;11.23;;;6.80;;
70455;SDS011;57916;51.996;5.180;2023-06-22T08:47:31;6.85;;;6.03;;
70455;SDS011;57916;51.996;5.180;2023-06-22T08:49:58;8.15;;;6.13;;
70455;SDS011;57916;51.996;5.180;2023-06-22T08:52:25;7.35;;;5.70;;
70455;SDS011;57916;51.996;5.180;2023-06-22T08:54:52;9.95;;;6.55;;
70455;SDS011;57916;51.996;5.180;2023-06-22T08:57:20;9.32;;;6.57;;
70455;SDS011;57916;51.996;5.180;2023-06-22T08:59:48;7.22;;;5.88;;
70455;SDS011;57916;51.996;5.180;2023-06-22T09:02:15;7.60;;;6.30;;
70455;SDS011;57916;51.996;5.180;2023-06-22T09:04:43;11.70;;;6.57;;
70455;SDS011;57916;51.996;5.180;2023-06-22T09:07:10;7.90;;;6.30;;
70455;SDS011;57916;51.996;5.180;2023-06-22T09:09:38;8.27;;;5.93;;
70455;SDS011;57916;51.996;5.180;2023-06-22T09:12:05;7.20;;;5.45;;
70455;SDS011;57916;51.996;5.180;2023-06-22T09:14:32;9.50;;;5.80;;
70455;SDS011;57916;51.996;5.180;2023-06-22T09:16:59;6.22;;;5.40;;
70455;SDS011;57916;51.996;5.180;2023-06-22T09:19:26;9.35;;;5.93;;
70455;SDS011;57916;51.996;5.180;2023-06-22T09:21:53;9.37;;;5.50;;
70455;SDS011;57916;51.996;5.180;2023-06-22T09:24:20;9.05;;;5.97;;
70455;SDS011;57916;51.996;5.180;2023-06-22T09:26:47;9.82;;;5.60;;
70455;SDS011;57916;51.996;5.180;2023-06-22T09:29:14;10.40;;;6.35;;
70455;SDS011;57916;51.996;5.180;2023-06-22T09:31:41;13.32;;;5.78;;
70455;SDS011;57916;51.996;5.180;2023-06-22T09:34:08;9.82;;;6.30;;
70455;SDS011;57916;51.996;5.180;2023-06-22T09:36:35;9.23;;;6.00;;
70455;SDS011;57916;51.996;5.180;2023-06-22T09:39:03;9.43;;;6.70;;
70455;SDS011;57916;51.996;5.180;2023-06-22T09:41:32;8.88;;;6.60;;
70455;SDS011;57916;51.996;5.180;2023-06-22T09:43:59;10.70;;;6.43;;
70455;SDS011;57916;51.996;5.180;2023-06-22T09:46:26;9.35;;;6.07;;
70455;SDS011;57916;51.996;5.180;2023-06-22T09:48:54;8.90;;;6.90;;
70455;SDS011;57916;51.996;5.180;2023-06-22T09:51:21;6.60;;;5.97;;
70455;SDS011;57916;51.996;5.180;2023-06-22T09:53:50;7.97;;;5.35;;
70455;SDS011;57916;51.996;5.180;2023-06-22T09:56:18;11.85;;;5.72;;
70455;SDS011;57916;51.996;5.180;2023-06-22T09:58:45;6.47;;;5.72;;
70455;SDS011;57916;51.996;5.180;2023-06-22T10:01:13;8.07;;;5.60;;
70455;SDS011;57916;51.996;5.180;2023-06-22T10:03:41;7.93;;;5.90;;
70455;SDS011;57916;51.996;5.180;2023-06-22T10:06:08;8.85;;;5.85;;
70455;SDS011;57916;51.996;5.180;2023-06-22T10:08:35;5.95;;;5.32;;
70455;SDS011;57916;51.996;5.180;2023-06-22T10:11:03;6.90;;;5.40;;
70455;SDS011;57916;51.996;5.180;2023-06-22T10:13:30;7.03;;;5.45;;
70455;SDS011;57916;51.996;5.180;2023-06-22T10:15:57;9.25;;;5.50;;
70455;SDS011;57916;51.996;5.180;2023-06-22T10:18:24;7.82;;;5.32;;
70455;SDS011;57916;51.996;5.180;2023-06-22T10:20:51;7.13;;;4.90;;
70455;SDS011;57916;51.996;5.180;2023-06-22T10:23:21;8.05;;;5.07;;
70455;SDS011;57916;51.996;5.180;2023-06-22T10:25:48;7.95;;;4.90;;
70455;SDS011;57916;51.996;5.180;2023-06-22T10:28:15;6.00;;;4.65;;
70455;SDS011;57916;51.996;5.180;2023-06-22T10:30:42;5.70;;;4.47;;
70455;SDS011;57916;51.996;5.180;2023-06-22T10:33:10;5.68;;;4.40;;
70455;SDS011;57916;51.996;5.180;2023-06-22T10:35:38;9.23;;;4.80;;
70455;SDS011;57916;51.996;5.180;2023-06-22T10:38:05;4.60;;;4.20;;
70455;SDS011;57916;51.996;5.180;2023-06-22T10:40:33;4.90;;;4.28;;
70455;SDS011;57916;51.996;5.180;2023-06-22T10:43:00;7.93;;;4.33;;
70455;SDS011;57916;51.996;5.180;2023-06-22T10:45:27;5.75;;;3.90;;
70455;SDS011;57916;51.996;5.180;2023-06-22T10:47:55;4.77;;;4.30;;
70455;SDS011;57916;51.996;5.180;2023-06-22T10:50:24;6.25;;;4.60;;
70455;SDS011;57916;51.996;5.180;2023-06-22T10:52:52;17.37;;;4.70;;
70455;SDS011;57916;51.996;5.180;2023-06-22T10:55:20;4.90;;;4.38;;
70455;SDS011;57916;51.996;5.180;2023-06-22T10:57:47;9.48;;;5.15;;
70455;SDS011;57916;51.996;5.180;2023-06-22T11:00:14;5.72;;;4.32;;
70455;SDS011;57916;51.996;5.180;2023-06-22T11:02:42;5.25;;;4.50;;
70455;SDS011;57916;51.996;5.180;2023-06-22T11:05:10;5.15;;;4.60;;
70455;SDS011;57916;51.996;5.180;2023-06-22T11:07:38;5.78;;;4.30;;
70455;SDS011;57916;51.996;5.180;2023-06-22T11:10:09;6.33;;;4.20;;
70455;SDS011;57916;51.996;5.180;2023-06-22T11:12:37;7.90;;;4.47;;
70455;SDS011;57916;51.996;5.180;2023-06-22T11:15:04;6.60;;;4.35;;
70455;SDS011;57916;51.996;5.180;2023-06-22T11:17:32;5.13;;;4.63;;
70455;SDS011;57916;51.996;5.180;2023-06-22T11:19:59;7.53;;;4.93;;
70455;SDS011;57916;51.996;5.180;2023-06-22T11:22:26;8.77;;;5.40;;
70455;SDS011;57916;51.996;5.180;2023-06-22T11:24:53;6.35;;;4.78;;
70455;SDS011;57916;51.996;5.180;2023-06-22T11:27:20;5.30;;;4.80;;
70455;SDS011;57916;51.996;5.180;2023-06-22T11:29:47;8.50;;;5.13;;
70455;SDS011;57916;51.996;5.180;2023-06-22T11:32:16;7.15;;;5.07;;
70455;SDS011;57916;51.996;5.180;2023-06-22T11:34:43;7.68;;;5.57;;
70455;SDS011;57916;51.996;5.180;2023-06-22T11:37:10;8.32;;;5.40;;
70455;SDS011;57916;51.996;5.180;2023-06-22T11:39:37;9.10;;;5.20;;
70455;SDS011;57916;51.996;5.180;2023-06-22T11:42:08;13.13;;;5.70;;
70455;SDS011;57916;51.996;5.180;2023-06-22T11:44:36;11.38;;;5.32;;
70455;SDS011;57916;51.996;5.180;2023-06-22T11:47:03;12.20;;;5.57;;
70455;SDS011;57916;51.996;5.180;2023-06-22T11:49:30;8.07;;;5.68;;
70455;SDS011;57916;51.996;5.180;2023-06-22T11:51:58;7.45;;;6.00;;
70455;SDS011;57916;51.996;5.180;2023-06-22T11:54:25;10.27;;;6.57;;
70455;SDS011;57916;51.996;5.180;2023-06-22T11:56:52;9.77;;;6.82;;
70455;SDS011;57916;51.996;5.180;2023-06-22T11:59:20;8.27;;;6.87;;
70455;SDS011;57916;51.996;5.180;2023-06-22T12:01:48;13.32;;;7.00;;
70455;SDS011;57916;51.996;5.180;2023-06-22T12:04:17;9.93;;;8.13;;
70455;SDS011;57916;51.996;5.180;2023-06-22T12:06:44;11.25;;;8.27;;
70455;SDS011;57916;51.996;5.180;2023-06-22T12:09:12;13.55;;;7.57;;
70455;SDS011;57916;51.996;5.180;2023-06-22T12:11:40;16.02;;;8.38;;
70455;SDS011;57916;51.996;5.180;2023-06-22T12:14:07;11.85;;;7.72;;
70455;SDS011;57916;51.996;5.180;2023-06-22T12:16:34;12.17;;;7.70;;
70455;SDS011;57916;51.996;5.180;2023-06-22T12:19:01;14.07;;;8.85;;
70455;SDS011;57916;51.996;5.180;2023-06-22T12:21:28;12.30;;;7.70;;
70455;SDS011;57916;51.996;5.180;2023-06-22T12:23:55;9.18;;;7.60;;
70455;SDS011;57916;51.996;5.180;2023-06-22T12:26:22;10.20;;;7.43;;
70455;SDS011;57916;51.996;5.180;2023-06-22T12:28:49;9.82;;;7.07;;
70455;SDS011;57916;51.996;5.180;2023-06-22T12:31:17;10.63;;;7.57;;
70455;SDS011;57916;51.996;5.180;2023-06-22T12:33:44;9.23;;;7.10;;
70455;SDS011;57916;51.996;5.180;2023-06-22T12:36:11;15.05;;;8.32;;
70455;SDS011;57916;51.996;5.180;2023-06-22T12:38:38;10.32;;;7.50;;
70455;SDS011;57916;51.996;5.180;2023-06-22T12:41:05;10.70;;;7.55;;
70455;SDS011;57916;51.996;5.180;2023-06-22T12:43:32;10.57;;;7.55;;
70455;SDS011;57916;51.996;5.180;2023-06-22T12:45:59;14.43;;;8.32;;
70455;SDS011;57916;51.996;5.180;2023-06-22T12:48:26;13.48;;;7.75;;
70455;SDS011;57916;51.996;5.180;2023-06-22T12:50:54;10.40;;;7.55;;
70455;SDS011;57916;51.996;5.180;2023-06-22T12:53:21;13.57;;;8.77;;
70455;SDS011;57916;51.996;5.180;2023-06-22T12:55:50;14.93;;;9.07;;
70455;SDS011;57916;51.996;5.180;2023-06-22T12:58:17;15.48;;;9.60;;
70455;SDS011;57916;51.996;5.180;2023-06-22T13:00:44;13.05;;;8.73;;
70455;SDS011;57916;51.996;5.180;2023-06-22T13:03:11;17.70;;;7.97;;
70455;SDS011;57916;51.996;5.180;2023-06-22T13:05:38;13.63;;;8.48;;
70455;SDS011;57916;51.996;5.180;2023-06-22T13:08:05;12.87;;;8.63;;
70455;SDS011;57916;51.996;5.180;2023-06-22T13:10:32;13.88;;;8.90;;
70455;SDS011;57916;51.996;5.180;2023-06-22T13:13:00;16.00;;;9.57;;
70455;SDS011;57916;51.996;5.180;2023-06-22T13:15:30;15.48;;;9.52;;
70455;SDS011;57916;51.996;5.180;2023-06-22T13:17:57;15.98;;;9.57;;
70455;SDS011;57916;51.996;5.180;2023-06-22T13:20:24;12.43;;;9.53;;
70455;SDS011;57916;51.996;5.180;2023-06-22T13:22:51;17.27;;;9.55;;
70455;SDS011;57916;51.996;5.180;2023-06-22T13:25:20;18.48;;;9.63;;
70455;SDS011;57916;51.996;5.180;2023-06-22T13:27:50;14.77;;;10.63;;
70455;SDS011;57916;51.996;5.180;2023-06-22T13:30:17;16.08;;;10.32;;
70455;SDS011;57916;51.996;5.180;2023-06-22T13:32:44;16.25;;;10.18;;
70455;SDS011;57916;51.996;5.180;2023-06-22T13:35:11;18.75;;;10.60;;
70455;SDS011;57916;51.996;5.180;2023-06-22T13:37:39;17.23;;;10.95;;
70455;SDS011;57916;51.996;5.180;2023-06-22T13:40:06;15.50;;;11.02;;
70455;SDS011;57916;51.996;5.180;2023-06-22T13:42:34;18.10;;;11.00;;
70455;SDS011;57916;51.996;5.180;2023-06-22T13:45:01;14.90;;;12.18;;
70455;SDS011;57916;51.996;5.180;2023-06-22T13:47:29;17.43;;;11.23;;
70455;SDS011;57916;51.996;5.180;2023-06-22T13:49:57;19.92;;;13.32;;
70455;SDS011;57916;51.996;5.180;2023-06-22T13:52:24;15.68;;;12.63;;
70455;SDS011;57916;51.996;5.180;2023-06-22T13:54:52;16.35;;;12.32;;
70455;SDS011;57916;51.996;5.180;2023-06-22T13:57:19;20.13;;;13.52;;
70455;SDS011;57916;51.996;5.180;2023-06-22T13:59:46;20.55;;;13.45;;
70455;SDS011;57916;51.996;5.180;2023-06-22T14:02:13;16.50;;;13.13;;
70455;SDS011;57916;51.996;5.180;2023-06-22T14:04:40;18.85;;;13.00;;
70455;SDS011;57916;51.996;5.180;2023-06-22T14:07:07;18.15;;;12.82;;
70455;SDS011;57916;51.996;5.180;2023-06-22T14:09:34;20.42;;;13.43;;
70455;SDS011;57916;51.996;5.180;2023-06-22T14:12:05;18.13;;;12.05;;
70455;SDS011;57916;51.996;5.180;2023-06-22T14:14:33;18.10;;;13.40;;
70455;SDS011;57916;51.996;5.180;2023-06-22T14:17:01;19.52;;;13.38;;
70455;SDS011;57916;51.996;5.180;2023-06-22T14:19:28;18.85;;;13.32;;
70455;SDS011;57916;51.996;5.180;2023-06-22T14:21:55;25.35;;;14.13;;
70455;SDS011;57916;51.996;5.180;2023-06-22T14:24:23;18.90;;;13.10;;
70455;SDS011;57916;51.996;5.180;2023-06-22T14:26:53;19.30;;;13.35;;
70455;SDS011;57916;51.996;5.180;2023-06-22T14:29:21;20.15;;;13.88;;
70455;SDS011;57916;51.996;5.180;2023-06-22T14:31:49;23.05;;;14.32;;
70455;SDS011;57916;51.996;5.180;2023-06-22T14:34:16;20.45;;;14.10;;
70455;SDS011;57916;51.996;5.180;2023-06-22T14:36:43;23.70;;;13.43;;
70455;SDS011;57916;51.996;5.180;2023-06-22T14:39:10;19.50;;;13.07;;
70455;SDS011;57916;51.996;5.180;2023-06-22T14:41:37;17.70;;;11.73;;
70455;SDS011;57916;51.996;5.180;2023-06-22T14:44:04;16.87;;;11.97;;